TimeEST,TemperatureF,Dew PointF,Humidity,Sea Level PressureIn,VisibilityMPH,Wind Direction,Wind SpeedMPH,Gust SpeedMPH,PrecipitationIn,Events,Conditions,WindDirDegrees,DateUTC
12:40 AM,35.6,30.2,81,29.74,10.0,SSW,5.8,-,N/A,,Mostly Cloudy,210,2012-12-19 05:40:00
12:51 AM,36.0,30.9,82,29.77,9.0,SW,5.8,-,0.00,Rain,Light Rain,220,2012-12-19 05:51:00
1:03 AM,35.6,30.2,81,29.74,6.0,SW,5.8,-,0.01,Rain,Light Rain,220,2012-12-19 06:03:00
1:30 AM,35.6,32.0,87,29.75,5.0,SSW,3.5,-,0.01,Rain-Snow,Light Rain,210,2012-12-19 06:30:00
1:41 AM,35.6,33.8,93,29.74,6.0,SSW,3.5,-,0.02,Rain-Snow,Light Rain,200,2012-12-19 06:41:00
1:51 AM,35.1,33.1,92,29.78,6.0,SSW,3.5,-,0.02,Rain-Snow,Light Rain,210,2012-12-19 06:51:00
2:51 AM,35.1,33.1,92,29.79,3.0,WSW,3.5,-,0.03,Rain-Snow,Light Rain,240,2012-12-19 07:51:00
3:06 AM,35.6,33.8,93,29.77,3.0,WSW,3.5,-,0.00,Rain-Snow,Light Rain,240,2012-12-19 08:06:00
3:51 AM,35.1,34.0,96,29.81,3.0,Calm,Calm,-,0.00,Rain-Snow,Light Rain,0,2012-12-19 08:51:00
4:15 AM,35.6,33.8,93,29.78,3.0,Calm,Calm,-,0.00,Rain-Snow,Light Rain,0,2012-12-19 09:15:00
4:51 AM,35.1,34.0,96,29.82,3.0,Calm,Calm,-,0.00,Rain-Snow,Light Rain,0,2012-12-19 09:51:00
5:07 AM,35.6,33.8,93,29.79,3.0,Calm,Calm,-,0.00,Rain-Snow,Light Rain,0,2012-12-19 10:07:00
5:51 AM,36.0,34.0,93,29.85,3.0,Calm,Calm,-,0.00,,Overcast,0,2012-12-19 10:51:00
6:37 AM,35.6,33.8,93,29.85,4.0,Calm,Calm,-,N/A,,Overcast,0,2012-12-19 11:37:00
6:51 AM,35.1,34.0,96,29.89,3.0,Calm,Calm,-,N/A,,Overcast,0,2012-12-19 11:51:00
7:39 AM,35.6,33.8,93,29.88,2.5,Calm,Calm,-,N/A,,Overcast,0,2012-12-19 12:39:00
7:51 AM,35.1,34.0,96,29.92,2.5,Calm,Calm,-,N/A,,Overcast,0,2012-12-19 12:51:00
8:31 AM,35.6,33.8,93,29.90,1.5,South,3.5,-,N/A,,Overcast,190,2012-12-19 13:31:00
8:51 AM,36.0,34.0,93,29.95,1.5,SW,3.5,-,N/A,,Overcast,220,2012-12-19 13:51:00
9:51 AM,37.0,35.1,93,29.97,1.8,SW,3.5,-,N/A,,Overcast,230,2012-12-19 14:51:00
10:08 AM,37.4,35.6,93,29.95,2.0,WSW,4.6,-,N/A,,Overcast,240,2012-12-19 15:08:00
10:36 AM,37.4,35.6,93,29.97,2.0,West,5.8,-,N/A,,Overcast,260,2012-12-19 15:36:00
10:51 AM,37.9,35.1,89,30.01,2.0,West,5.8,-,N/A,,Overcast,270,2012-12-19 15:51:00
11:41 AM,39.2,35.6,87,29.99,3.0,West,4.6,-,N/A,,Overcast,270,2012-12-19 16:41:00
11:51 AM,39.0,36.0,89,30.02,3.0,West,4.6,-,N/A,,Overcast,260,2012-12-19 16:51:00
12:51 PM,39.9,36.0,86,30.03,4.0,West,8.1,-,N/A,,Overcast,280,2012-12-19 17:51:00
1:22 PM,39.2,35.6,87,30.01,6.0,West,8.1,-,0.00,Rain,Light Rain,270,2012-12-19 18:22:00
1:51 PM,39.9,36.0,86,30.05,6.0,West,8.1,-,0.00,,Light Drizzle,270,2012-12-19 18:51:00
2:21 PM,41.0,35.6,81,30.02,5.0,WNW,6.9,-,0.00,,Overcast,290,2012-12-19 19:21:00
2:51 PM,41.0,35.1,79,30.06,7.0,West,10.4,-,0.00,,Overcast,280,2012-12-19 19:51:00
3:38 PM,41.0,35.6,81,30.05,7.0,WNW,6.9,-,N/A,,Mostly Cloudy,290,2012-12-19 20:38:00
3:51 PM,41.0,35.1,79,30.08,7.0,West,8.1,-,N/A,,Mostly Cloudy,260,2012-12-19 20:51:00
4:51 PM,37.9,33.1,83,30.10,7.0,West,3.5,-,N/A,,Mostly Cloudy,270,2012-12-19 21:51:00
5:51 PM,37.9,34.0,86,30.12,7.0,Calm,Calm,-,N/A,,Mostly Cloudy,0,2012-12-19 22:51:00
6:51 PM,36.0,33.1,89,30.14,7.0,Calm,Calm,-,N/A,,Scattered Clouds,0,2012-12-19 23:51:00
7:51 PM,34.0,30.9,89,30.16,5.0,Calm,Calm,-,N/A,,Partly Cloudy,0,2012-12-20 00:51:00
8:51 PM,33.1,30.0,89,30.17,5.0,Calm,Calm,-,N/A,,Partly Cloudy,0,2012-12-20 01:51:00
9:51 PM,28.9,27.0,92,30.17,5.0,East,4.6,-,N/A,,Partly Cloudy,100,2012-12-20 02:51:00
10:51 PM,28.0,27.0,96,30.17,6.0,East,5.8,-,N/A,,Clear,100,2012-12-20 03:51:00
11:41 PM,30.2,26.6,86,30.11,4.0,East,6.9,-,N/A,,Mostly Cloudy,100,2012-12-20 04:41:00
11:51 PM,28.9,28.0,96,30.15,2.5,ESE,4.6,-,N/A,,Scattered Clouds,110,2012-12-20 04:51:00